createdAt,value
2022-12-14T00:02:28.243Z,106.55
2022-12-14T00:04:56.579Z,93.60
2022-12-14T00:07:25.073Z,104.22
2022-12-14T00:09:53.244Z,107.60
2022-12-14T00:12:21.619Z,103.82
2022-12-14T00:14:50.036Z,93.82
2022-12-14T00:17:18.559Z,98.07
2022-12-14T00:19:48.944Z,101.93
2022-12-14T00:22:17.550Z,110.85
2022-12-14T00:24:45.805Z,97.93
2022-12-14T00:27:14.425Z,111.90
2022-12-14T00:29:42.696Z,105.63
2022-12-14T00:32:11.152Z,98.28
2022-12-14T00:34:39.378Z,94.93
2022-12-14T00:37:09.268Z,95.95
2022-12-14T00:39:37.668Z,89.25
2022-12-14T00:42:07.782Z,84.57
2022-12-14T00:44:36.016Z,82.03
2022-12-14T00:47:04.500Z,90.70
2022-12-14T00:49:32.698Z,88.82
2022-12-14T00:52:01.198Z,93.78
2022-12-14T00:54:30.808Z,92.47
2022-12-14T00:56:59.315Z,85.45
2022-12-14T00:59:27.673Z,101.50
2022-12-14T01:01:56.204Z,96.35
2022-12-14T01:04:24.770Z,103.35
2022-12-14T01:06:54.876Z,98.72
2022-12-14T01:09:24.735Z,96.00
2022-12-14T01:11:54.681Z,95.70
2022-12-14T01:14:23.749Z,99.80
2022-12-14T01:16:52.277Z,95.20
2022-12-14T01:19:20.464Z,89.68
2022-12-14T01:21:48.884Z,88.47
2022-12-14T01:24:17.028Z,82.50
2022-12-14T01:26:45.544Z,87.88
2022-12-14T01:29:16.322Z,74.22
2022-12-14T01:34:17.394Z,74.40
2022-12-14T01:36:45.938Z,83.50
2022-12-14T01:39:15.683Z,72.53
2022-12-14T01:41:45.423Z,79.60
2022-12-14T01:44:52.681Z,70.80
2022-12-14T01:47:29.793Z,68.85
2022-12-14T01:50:01.351Z,73.07
2022-12-14T01:52:35.216Z,63.92
2022-12-14T01:55:05.840Z,72.32
2022-12-14T01:57:37.202Z,74.95
2022-12-14T02:00:10.142Z,66.97
2022-12-14T02:02:39.720Z,69.80
2022-12-14T02:05:09.720Z,70.63
2022-12-14T02:07:38.805Z,68.32
2022-12-14T02:10:08.177Z,71.70
2022-12-14T02:12:39.885Z,71.78
2022-12-14T02:15:10.424Z,58.67
2022-12-14T02:17:39.642Z,60.78
2022-12-14T02:20:08.703Z,62.10
2022-12-14T02:23:02.530Z,70.05
2022-12-14T02:25:56.691Z,64.93
2022-12-14T02:28:44.223Z,62.92
2022-12-14T02:31:17.322Z,72.88
2022-12-14T02:33:51.123Z,67.05
2022-12-14T02:36:23.877Z,71.45
2022-12-14T02:38:58.840Z,66.55
2022-12-14T02:41:38.447Z,70.03
2022-12-14T02:44:17.555Z,68.03
2022-12-14T02:46:51.576Z,73.45
2022-12-14T02:49:31.146Z,75.15
2022-12-14T02:52:04.567Z,77.97
2022-12-14T02:54:39.444Z,79.30
2022-12-14T02:57:11.941Z,79.15
2022-12-14T02:59:40.929Z,71.32
2022-12-14T03:02:12.161Z,73.30
2022-12-14T03:04:46.074Z,76.53
2022-12-14T03:07:32.585Z,68.32
2022-12-14T03:10:05.823Z,74.30
2022-12-14T03:12:34.967Z,69.53
2022-12-14T03:15:04.952Z,72.03
2022-12-14T03:17:35.371Z,69.70
2022-12-14T03:20:07.187Z,68.95
2022-12-14T03:22:43.223Z,62.75
2022-12-14T03:25:15.141Z,71.13
2022-12-14T03:27:47.571Z,69.35
2022-12-14T03:30:31.705Z,69.82
2022-12-14T03:33:10.784Z,69.30
2022-12-14T03:35:43.573Z,59.28
2022-12-14T03:38:17.528Z,65.10
2022-12-14T03:40:52.848Z,66.78
2022-12-14T03:43:28.810Z,68.30
2022-12-14T03:46:02.008Z,64.30
2022-12-14T03:48:34.060Z,69.70
2022-12-14T03:51:09.340Z,64.18
2022-12-14T03:53:41.856Z,61.63
2022-12-14T03:56:14.246Z,63.40
2022-12-14T03:58:51.205Z,68.70
2022-12-14T04:01:31.275Z,68.38
2022-12-14T04:04:04.991Z,61.70
2022-12-14T04:06:38.716Z,66.57
2022-12-14T04:09:17.621Z,65.60
2022-12-14T04:12:08.238Z,64.93
2022-12-14T04:14:56.565Z,61.80
2022-12-14T04:17:46.239Z,64.53
2022-12-14T04:20:18.539Z,57.75
2022-12-14T04:22:49.782Z,66.00
2022-12-14T04:25:39.988Z,59.15
2022-12-14T04:28:32.303Z,64.38
2022-12-14T04:31:02.422Z,62.08
2022-12-14T04:33:49.633Z,61.53
2022-12-14T04:36:23.783Z,55.45
2022-12-14T04:38:56.154Z,61.78
2022-12-14T04:41:26.259Z,56.70
2022-12-14T04:43:57.344Z,44.60
2022-12-14T04:46:27.418Z,54.65
2022-12-14T04:49:00.232Z,59.92
2022-12-14T04:51:33.137Z,56.95
2022-12-14T04:54:05.920Z,57.95
2022-12-14T04:56:36.232Z,57.63
2022-12-14T04:59:04.814Z,59.60
2022-12-14T05:01:44.900Z,63.30
2022-12-14T05:04:25.498Z,63.17
2022-12-14T05:07:04.220Z,67.13
2022-12-14T05:09:34.200Z,58.13
2022-12-14T05:12:06.116Z,68.18
2022-12-14T05:14:38.909Z,60.78
2022-12-14T05:17:09.101Z,62.45
2022-12-14T05:19:38.594Z,57.00
2022-12-14T05:22:09.341Z,69.88
2022-12-14T05:27:06.270Z,54.22
2022-12-14T05:29:34.689Z,61.45
2022-12-14T05:32:03.078Z,53.28
2022-12-14T05:34:31.847Z,58.60
2022-12-14T05:37:00.112Z,60.05
2022-12-14T05:39:29.984Z,60.08
2022-12-14T05:41:58.276Z,54.83
2022-12-14T05:44:26.722Z,57.90
2022-12-14T05:46:56.159Z,59.42
2022-12-14T05:49:25.340Z,64.50
2022-12-14T05:51:53.587Z,59.90
2022-12-14T05:54:22.059Z,63.75
2022-12-14T05:56:51.624Z,65.22
2022-12-14T05:59:20.140Z,64.60
2022-12-14T06:01:50.622Z,70.28
2022-12-14T06:06:48.247Z,62.95
2022-12-14T06:09:17.722Z,70.88
2022-12-14T06:11:46.814Z,59.42
2022-12-14T06:14:17.249Z,71.07
2022-12-14T06:16:49.192Z,70.18
2022-12-14T06:19:17.692Z,70.47
2022-12-14T06:21:46.100Z,76.45
2022-12-14T06:24:14.991Z,76.18
2022-12-14T06:26:43.358Z,62.00
2022-12-14T06:29:18.075Z,69.75
2022-12-14T06:31:49.348Z,66.28
2022-12-14T06:34:19.199Z,62.80
2022-12-14T06:36:48.661Z,67.38
2022-12-14T06:39:18.348Z,62.30
2022-12-14T06:41:50.849Z,60.75
2022-12-14T06:44:20.889Z,61.05
2022-12-14T06:46:49.151Z,65.72
2022-12-14T06:49:17.966Z,63.55
2022-12-14T06:51:46.280Z,63.05
2022-12-14T06:54:15.604Z,61.47
2022-12-14T06:56:44.796Z,64.15
2022-12-14T06:59:13.970Z,62.92
2022-12-14T07:01:44.265Z,62.97
2022-12-14T07:04:15.161Z,59.03
2022-12-14T07:06:43.308Z,56.08
2022-12-14T07:09:14.723Z,59.17
2022-12-14T07:14:15.664Z,58.10
2022-12-14T07:16:48.249Z,58.15
2022-12-14T07:19:18.680Z,55.78
2022-12-14T07:21:46.920Z,60.08
2022-12-14T07:24:15.807Z,60.13
2022-12-14T07:26:44.007Z,55.17
2022-12-14T07:29:14.829Z,51.38
2022-12-14T07:31:43.188Z,62.25
2022-12-14T07:34:14.581Z,55.78
2022-12-14T07:39:13.717Z,61.65
2022-12-14T07:41:42.124Z,58.13
2022-12-14T07:44:10.918Z,59.83
2022-12-14T07:46:39.346Z,64.38
2022-12-14T07:49:08.491Z,57.22
2022-12-14T07:51:41.207Z,66.15
2022-12-14T07:54:10.001Z,67.43
2022-12-14T07:56:41.244Z,55.75
2022-12-14T07:59:14.610Z,66.22
2022-12-14T08:01:43.992Z,64.05
2022-12-14T08:04:14.204Z,56.72
2022-12-14T08:06:44.160Z,58.90
2022-12-14T08:09:13.028Z,58.00
2022-12-14T08:11:41.319Z,54.40
2022-12-14T08:14:13.631Z,50.78
2022-12-14T08:16:41.920Z,57.75
2022-12-14T08:19:11.733Z,59.92
2022-12-14T08:21:40.561Z,51.45
2022-12-14T08:24:11.914Z,56.08
2022-12-14T08:26:42.910Z,53.88
2022-12-14T08:29:17.923Z,55.58
2022-12-14T08:31:48.386Z,52.90
2022-12-14T08:34:22.159Z,50.80
2022-12-14T08:36:50.615Z,48.88
2022-12-14T08:39:20.471Z,47.97
2022-12-14T08:41:48.857Z,57.60
2022-12-14T08:44:18.817Z,50.17
2022-12-14T08:46:47.862Z,50.97
2022-12-14T08:49:16.648Z,50.80
2022-12-14T08:51:44.746Z,57.05
2022-12-14T08:54:13.159Z,46.88
2022-12-14T08:56:42.929Z,48.95
2022-12-14T08:59:29.959Z,46.72
2022-12-14T09:02:00.112Z,50.85
2022-12-14T09:04:28.960Z,48.20
2022-12-14T09:06:57.647Z,43.45
2022-12-14T09:09:26.116Z,49.53
2022-12-14T09:11:55.675Z,54.63
2022-12-14T09:14:24.190Z,47.65
2022-12-14T09:16:52.595Z,50.67
2022-12-14T09:19:21.225Z,40.78
2022-12-14T09:21:49.694Z,46.70
2022-12-14T09:24:18.251Z,48.90
2022-12-14T09:26:47.030Z,44.80
2022-12-14T09:29:18.731Z,40.78
2022-12-14T09:34:15.601Z,47.80
2022-12-14T09:36:43.874Z,49.90
2022-12-14T09:39:15.073Z,45.30
2022-12-14T09:42:00.594Z,38.38
2022-12-14T09:44:41.119Z,40.58
2022-12-14T09:47:13.686Z,45.13
2022-12-14T09:49:44.176Z,51.38
2022-12-14T09:52:17.074Z,44.13
2022-12-14T09:54:49.780Z,51.70
2022-12-14T09:57:24.819Z,48.50
2022-12-14T09:59:55.752Z,46.00
2022-12-14T10:02:32.496Z,44.53
2022-12-14T10:05:11.403Z,32.22
2022-12-14T10:07:43.319Z,33.80
2022-12-14T10:10:20.562Z,41.55
2022-12-14T10:12:57.793Z,45.55
2022-12-14T10:15:30.007Z,40.00
2022-12-14T10:18:27.424Z,34.05
2022-12-14T10:21:03.425Z,36.03
2022-12-14T10:23:32.046Z,35.70
2022-12-14T10:26:07.643Z,43.53
2022-12-14T10:28:44.479Z,43.67
2022-12-14T10:31:15.738Z,46.45
2022-12-14T10:33:45.949Z,41.30
2022-12-14T10:36:21.291Z,49.95
2022-12-14T10:38:54.718Z,43.42
2022-12-14T10:41:29.397Z,45.65
2022-12-14T10:44:01.345Z,34.40
2022-12-14T10:46:40.963Z,33.75
2022-12-14T10:49:15.359Z,39.90
2022-12-14T10:51:47.091Z,44.67
2022-12-14T10:54:24.166Z,31.67
2022-12-14T10:56:52.786Z,31.70
2022-12-14T10:59:39.772Z,28.80
2022-12-14T11:02:17.483Z,30.90
2022-12-14T11:04:49.948Z,29.80
2022-12-14T11:07:20.152Z,33.50
2022-12-14T11:09:48.430Z,38.33
2022-12-14T11:12:23.357Z,44.88
2022-12-14T11:14:57.007Z,40.97
2022-12-14T11:17:35.507Z,37.67
2022-12-14T11:20:18.984Z,41.63
2022-12-14T11:22:49.462Z,36.53
2022-12-14T11:25:29.335Z,38.47
2022-12-14T11:27:58.334Z,37.78
2022-12-14T11:30:26.598Z,37.20
2022-12-14T11:32:56.624Z,37.38
2022-12-14T11:35:24.886Z,38.17
2022-12-14T11:37:59.811Z,48.40
2022-12-14T11:40:28.929Z,39.63
2022-12-14T11:43:03.018Z,41.05
2022-12-14T11:45:33.649Z,59.17
2022-12-14T11:48:20.960Z,44.55
2022-12-14T11:50:51.028Z,57.47
2022-12-14T11:53:21.280Z,54.23
2022-12-14T11:55:53.999Z,54.15
2022-12-14T11:58:25.250Z,56.47
2022-12-14T12:00:58.580Z,61.35
2022-12-14T12:03:33.817Z,59.85
2022-12-14T12:06:04.831Z,44.03
2022-12-14T12:11:05.991Z,50.22
2022-12-14T12:13:39.470Z,41.90
2022-12-14T12:16:14.355Z,58.65
2022-12-14T12:18:48.021Z,54.92
2022-12-14T12:21:18.659Z,128.10
2022-12-14T12:23:54.804Z,38.78
2022-12-14T12:26:28.155Z,69.38
2022-12-14T12:29:00.937Z,44.20
2022-12-14T12:31:33.996Z,41.33
2022-12-14T12:34:06.418Z,43.30
2022-12-14T12:36:34.646Z,45.13
2022-12-14T12:39:06.134Z,45.53
2022-12-14T12:41:41.659Z,44.55
2022-12-14T12:44:25.601Z,42.08
2022-12-14T12:47:24.000Z,43.47
2022-12-14T12:49:51.481Z,38.60
2022-12-14T12:52:23.452Z,65.90
2022-12-14T12:54:57.407Z,50.75
2022-12-14T12:57:27.206Z,46.30
2022-12-14T12:59:57.264Z,60.25
2022-12-14T13:02:31.378Z,69.97
2022-12-14T13:05:22.355Z,60.45
2022-12-14T13:07:54.308Z,61.28
2022-12-14T13:10:24.990Z,53.05
2022-12-14T13:12:55.819Z,61.05
2022-12-14T13:15:27.532Z,48.83
2022-12-14T13:17:59.246Z,54.28
2022-12-14T13:20:32.078Z,48.67
2022-12-14T13:23:15.159Z,59.17
2022-12-14T13:25:54.740Z,42.50
2022-12-14T13:28:33.368Z,53.25
2022-12-14T13:31:12.446Z,48.10
2022-12-14T13:33:56.778Z,55.00
2022-12-14T13:36:37.593Z,56.15
2022-12-14T13:39:21.078Z,53.60
2022-12-14T13:41:52.630Z,53.40
2022-12-14T13:47:15.473Z,52.35
2022-12-14T13:50:18.510Z,56.70
2022-12-14T13:52:44.065Z,64.78
2022-12-14T13:55:26.746Z,66.45
2022-12-14T13:57:56.115Z,58.80
2022-12-14T14:00:57.455Z,51.03
2022-12-14T14:03:54.497Z,51.88
2022-12-14T14:06:35.804Z,57.08
2022-12-14T14:09:41.877Z,50.65
2022-12-14T14:12:46.628Z,59.95
2022-12-14T14:16:26.980Z,49.40
2022-12-14T14:18:49.238Z,54.85
2022-12-14T14:21:38.868Z,66.70
2022-12-14T14:24:22.770Z,60.78
2022-12-14T14:27:02.487Z,62.03
2022-12-14T14:29:31.252Z,63.78
2022-12-14T14:32:02.604Z,56.45
2022-12-14T14:34:49.890Z,57.25
2022-12-14T14:37:32.852Z,58.38
2022-12-14T14:40:29.508Z,118.00
2022-12-14T14:43:08.260Z,64.13
2022-12-14T14:45:41.966Z,54.88
2022-12-14T14:48:22.877Z,51.88
2022-12-14T14:51:03.489Z,75.25
2022-12-14T14:53:33.644Z,53.42
2022-12-14T14:56:27.278Z,61.08
2022-12-14T14:59:34.191Z,54.97
2022-12-14T15:02:05.208Z,48.63
2022-12-14T15:04:41.886Z,48.83
2022-12-14T15:07:15.390Z,52.40
2022-12-14T15:09:47.413Z,56.17
2022-12-14T15:12:25.239Z,63.05
2022-12-14T15:14:55.782Z,67.75
2022-12-14T15:17:25.214Z,49.37
2022-12-14T15:19:55.842Z,49.70
2022-12-14T15:22:26.255Z,45.88
2022-12-14T15:24:57.078Z,52.30
2022-12-14T15:27:28.475Z,51.58
2022-12-14T15:30:00.650Z,50.90
2022-12-14T15:32:29.049Z,61.95
2022-12-14T15:35:00.516Z,56.65
2022-12-14T15:37:33.400Z,51.35
2022-12-14T15:40:05.333Z,54.95
2022-12-14T15:42:33.587Z,56.35
2022-12-14T15:45:11.540Z,51.60
2022-12-14T15:47:39.723Z,54.83
2022-12-14T15:50:23.855Z,51.88
2022-12-14T15:52:52.659Z,55.75
2022-12-14T15:55:35.411Z,62.58
2022-12-14T15:58:09.029Z,72.13
2022-12-14T16:00:42.717Z,75.80
2022-12-14T16:03:19.047Z,70.47
2022-12-14T16:05:50.090Z,79.40
2022-12-14T16:08:18.732Z,65.70
2022-12-14T16:10:48.512Z,69.43
2022-12-14T16:13:22.269Z,65.88
2022-12-14T16:15:51.986Z,75.43
2022-12-14T16:18:21.334Z,80.22
2022-12-14T16:20:59.745Z,81.95
2022-12-14T16:23:31.469Z,79.97
2022-12-14T16:26:03.101Z,78.90
2022-12-14T16:28:33.204Z,88.38
2022-12-14T16:31:03.831Z,69.90
2022-12-14T16:33:34.872Z,91.30
2022-12-14T16:36:07.152Z,126.82
2022-12-14T16:38:40.921Z,79.07
2022-12-14T16:41:10.041Z,103.25
2022-12-14T16:43:39.795Z,105.10
2022-12-14T16:46:15.840Z,93.45
2022-12-14T16:49:18.163Z,89.97
2022-12-14T16:54:37.034Z,73.35
2022-12-14T16:57:07.317Z,69.93
2022-12-14T16:59:41.100Z,70.32
2022-12-14T17:02:26.907Z,73.15
2022-12-14T17:04:55.954Z,73.30
2022-12-14T17:07:29.530Z,79.22
2022-12-14T17:09:57.826Z,81.13
2022-12-14T17:12:27.378Z,80.70
2022-12-14T17:14:55.776Z,84.00
2022-12-14T17:17:30.910Z,66.75
2022-12-14T17:20:00.607Z,70.82
2022-12-14T17:22:34.071Z,66.63
2022-12-14T17:25:02.780Z,68.13
2022-12-14T17:30:01.788Z,70.68
2022-12-14T17:32:31.927Z,82.68
2022-12-14T17:35:01.157Z,96.72
2022-12-14T17:37:36.438Z,99.05
2022-12-14T17:40:07.824Z,60.38
2022-12-14T17:45:05.207Z,74.35
2022-12-14T17:47:34.234Z,103.65
2022-12-14T17:50:02.599Z,77.28
2022-12-14T17:52:35.706Z,73.70
2022-12-14T17:55:04.486Z,106.93
2022-12-14T17:57:33.773Z,78.80
2022-12-14T18:00:18.761Z,78.10
2022-12-14T18:02:48.081Z,62.88
2022-12-14T18:05:20.008Z,72.05
2022-12-14T18:07:50.473Z,71.40
2022-12-14T18:10:19.746Z,67.95
2022-12-14T18:12:49.671Z,67.07
2022-12-14T18:15:20.115Z,70.15
2022-12-14T18:17:49.477Z,69.65
2022-12-14T18:20:19.533Z,58.40
2022-12-14T18:22:50.130Z,66.72
2022-12-14T18:25:27.409Z,59.73
2022-12-14T18:27:56.265Z,72.63
2022-12-14T18:30:25.313Z,73.05
2022-12-14T18:32:54.107Z,60.08
2022-12-14T18:35:23.778Z,61.53
2022-12-14T18:37:54.398Z,68.45
2022-12-14T18:40:25.966Z,110.97
2022-12-14T18:42:54.971Z,78.10
2022-12-14T18:45:25.673Z,87.90
2022-12-14T18:47:55.568Z,76.18
2022-12-14T18:50:25.423Z,85.43
2022-12-14T18:52:59.637Z,78.28
2022-12-14T18:55:33.216Z,68.90
2022-12-14T18:58:05.964Z,72.30
2022-12-14T19:00:37.376Z,66.20
2022-12-14T19:03:06.402Z,84.22
2022-12-14T19:05:35.264Z,82.05
2022-12-14T19:08:07.598Z,69.15
2022-12-14T19:10:36.004Z,66.20
2022-12-14T19:13:04.731Z,64.97
2022-12-14T19:15:35.882Z,65.53
2022-12-14T19:18:05.407Z,61.40
2022-12-14T19:20:37.492Z,80.90
2022-12-14T19:23:07.472Z,78.32
2022-12-14T19:25:35.758Z,90.68
2022-12-14T19:28:30.949Z,68.20
2022-12-14T19:30:53.062Z,75.70
2022-12-14T19:33:23.536Z,84.72
2022-12-14T19:35:52.045Z,79.57
2022-12-14T19:38:22.215Z,86.40
2022-12-14T19:40:59.448Z,95.70
2022-12-14T19:43:29.181Z,81.32
2022-12-14T19:45:57.628Z,70.15
2022-12-14T19:48:27.965Z,77.72
2022-12-14T19:50:56.446Z,57.50
2022-12-14T19:53:26.633Z,57.15
2022-12-14T19:55:55.240Z,61.85
2022-12-14T19:58:25.547Z,65.35
2022-12-14T20:00:54.247Z,58.85
2022-12-14T20:03:23.837Z,56.67
2022-12-14T20:05:53.607Z,51.58
2022-12-14T20:08:22.872Z,55.88
2022-12-14T20:10:53.905Z,50.25
2022-12-14T20:13:23.458Z,54.28
2022-12-14T20:15:52.299Z,52.63
2022-12-14T20:18:21.016Z,56.35
2022-12-14T20:20:50.347Z,61.53
2022-12-14T20:23:19.440Z,54.63
2022-12-14T20:25:47.944Z,53.13
2022-12-14T20:28:18.271Z,55.20
2022-12-14T20:30:48.081Z,58.33
2022-12-14T20:33:16.810Z,53.17
2022-12-14T20:35:47.745Z,64.32
2022-12-14T20:40:44.745Z,52.92
2022-12-14T20:43:13.460Z,61.33
2022-12-14T20:45:45.170Z,61.40
2022-12-14T20:48:14.506Z,56.78
2022-12-14T20:50:44.598Z,57.17
2022-12-14T20:53:19.917Z,63.78
2022-12-14T20:55:48.343Z,59.92
2022-12-14T20:58:17.344Z,66.50
2022-12-14T21:00:47.176Z,63.40
2022-12-14T21:03:15.996Z,64.07
2022-12-14T21:05:44.799Z,63.70
2022-12-14T21:08:15.860Z,62.45
2022-12-14T21:10:44.133Z,78.60
2022-12-14T21:13:11.578Z,89.30
2022-12-14T21:15:39.947Z,77.05
2022-12-14T21:18:09.776Z,81.75
2022-12-14T21:20:38.201Z,90.35
2022-12-14T21:23:06.813Z,72.63
2022-12-14T21:25:35.076Z,68.65
2022-12-14T21:28:03.615Z,65.30
2022-12-14T21:30:31.816Z,62.75
2022-12-14T21:33:00.382Z,69.88
2022-12-14T21:35:30.030Z,58.45
2022-12-14T21:37:58.620Z,62.63
2022-12-14T21:40:44.580Z,62.50
2022-12-14T21:43:13.572Z,51.17
2022-12-14T21:45:41.897Z,55.15
2022-12-14T21:48:10.590Z,51.50
2022-12-14T21:50:45.303Z,54.47
2022-12-14T21:53:13.878Z,52.35
2022-12-14T21:55:49.701Z,53.40
2022-12-14T21:58:17.668Z,62.80
2022-12-14T22:00:50.303Z,65.95
2022-12-14T22:03:23.189Z,75.07
2022-12-14T22:05:52.975Z,60.08
2022-12-14T22:08:21.539Z,63.60
2022-12-14T22:10:50.163Z,60.58
2022-12-14T22:13:19.306Z,57.25
2022-12-14T22:15:47.640Z,54.13
2022-12-14T22:18:18.815Z,57.60
2022-12-14T22:20:48.448Z,59.70
2022-12-14T22:23:20.910Z,56.08
2022-12-14T22:25:51.073Z,53.20
2022-12-14T22:28:20.070Z,47.43
2022-12-14T22:30:48.546Z,47.05
2022-12-14T22:33:17.342Z,48.40
2022-12-14T22:35:46.171Z,50.53
2022-12-14T22:38:14.908Z,59.78
2022-12-14T22:40:44.462Z,56.33
2022-12-14T22:43:13.120Z,49.42
2022-12-14T22:45:41.556Z,52.30
2022-12-14T22:48:10.208Z,44.85
2022-12-14T22:50:38.481Z,55.17
2022-12-14T22:53:07.117Z,53.38
2022-12-14T22:55:38.288Z,60.15
2022-12-14T22:58:10.255Z,55.08
2022-12-14T23:00:38.553Z,54.83
2022-12-14T23:03:07.797Z,50.47
2022-12-14T23:05:36.049Z,54.58
2022-12-14T23:08:04.867Z,63.78
2022-12-14T23:10:50.301Z,80.63
2022-12-14T23:13:37.784Z,74.50
2022-12-14T23:16:24.071Z,65.05
2022-12-14T23:19:10.188Z,68.05
2022-12-14T23:21:57.042Z,69.47
2022-12-14T23:24:43.139Z,63.67
2022-12-14T23:27:29.334Z,59.33
2022-12-14T23:30:16.987Z,66.93
2022-12-14T23:33:02.671Z,64.03
2022-12-14T23:35:48.958Z,57.90
2022-12-14T23:38:34.593Z,60.40
2022-12-14T23:41:20.649Z,61.55
2022-12-14T23:44:06.648Z,59.38
2022-12-14T23:46:54.039Z,56.20
2022-12-14T23:49:39.663Z,60.08
2022-12-14T23:52:25.751Z,53.45
2022-12-14T23:55:11.530Z,54.83
2022-12-14T23:57:57.683Z,55.65
